Time;durP1;ratioP1;P1;durP2;ratioP2;P2;SDS_P1;SDS_P2;PMS_P1;PMS_P2;Temp;Humidity;BMP_temperature;BMP_pressure;BME280_temperature;BME280_humidity;BME280_pressure;Samples;Min_cycle;Max_cycle;Signal;HPM_P1;HPM_P2
2022/09/13 00:00:20;;;;;;;;;;;17.50;99.90;;;;;;5075250;28;19924;-71
2022/09/13 00:02:45;;;;;;;;;;;17.50;99.90;;;;;;5057424;28;19924;-70
2022/09/13 00:05:11;;;;;;;;;;;17.50;99.90;;;;;;5073945;28;19931;-70
2022/09/13 00:07:36;;;;;;;;;;;17.50;99.90;;;;;;5047293;28;19924;-70
2022/09/13 00:10:03;;;;;;;;;;;17.50;99.90;;;;;;5047907;28;19924;-70
2022/09/13 00:12:28;;;;;;;;;;;17.50;99.90;;;;;;5062953;28;19971;-70
2022/09/13 00:14:54;;;;;;;;;;;17.50;99.90;;;;;;5064208;28;19968;-70
2022/09/13 00:17:20;;;;;;;;;;;17.50;99.90;;;;;;5062925;28;19920;-70
2022/09/13 00:19:45;;;;;;;;;;;17.40;99.90;;;;;;5053583;28;21991;-70
2022/09/13 00:22:11;;;;;;;;;;;17.50;99.90;;;;;;5073807;28;19970;-70
2022/09/13 00:24:36;;;;;;;;;;;17.50;99.90;;;;;;5056619;28;20011;-70
2022/09/13 00:27:02;;;;;;;;;;;17.50;99.90;;;;;;5055375;28;19929;-71
2022/09/13 00:29:27;;;;;;;;;;;17.50;99.90;;;;;;5056557;28;19920;-70
2022/09/13 00:31:53;;;;;;;;;;;17.50;99.90;;;;;;5074083;28;19921;-70
2022/09/13 00:34:18;;;;;;;;;;;17.50;99.90;;;;;;5046346;28;19921;-72
2022/09/13 00:36:44;;;;;;;;;;;17.50;99.90;;;;;;5052158;28;20281;-71
2022/09/13 00:39:10;;;;;;;;;;;17.50;99.90;;;;;;5056106;28;20023;-70
2022/09/13 00:41:35;;;;;;;;;;;17.50;99.90;;;;;;5055263;28;20058;-71
2022/09/13 00:44:02;;;;;;;;;;;17.50;99.90;;;;;;5055822;28;19920;-71
2022/09/13 00:46:27;;;;;;;;;;;17.50;99.90;;;;;;5069149;28;19925;-71
2022/09/13 00:48:55;;;;;;;;;;;17.50;99.90;;;;;;5063010;28;19983;-70
2022/09/13 00:51:21;;;;;;;;;;;17.60;99.90;;;;;;5047151;28;19929;-71
2022/09/13 00:53:49;;;;;;;;;;;17.60;99.90;;;;;;5045546;28;19927;-71
2022/09/13 00:56:18;;;;;;;;;;;17.60;99.90;;;;;;5063281;28;19920;-71
2022/09/13 00:59:03;;;;;;;;;;;17.60;99.90;;;;;;5063545;28;20018;-71
2022/09/13 01:01:32;;;;;;;;;;;17.60;99.90;;;;;;5051512;28;20356;-70
2022/09/13 01:03:57;;;;;;;;;;;17.60;99.90;;;;;;5048068;28;19931;-71
2022/09/13 01:06:28;;;;;;;;;;;17.60;99.90;;;;;;5064449;28;19995;-71
2022/09/13 01:08:55;;;;;;;;;;;17.60;99.90;;;;;;5050867;28;19946;-70
2022/09/13 01:11:29;;;;;;;;;;;17.70;99.90;;;;;;5055608;28;20364;-71
2022/09/13 01:13:55;;;;;;;;;;;17.60;99.90;;;;;;5051293;28;19920;-71
2022/09/13 01:16:23;;;;;;;;;;;17.60;99.90;;;;;;5055267;28;20257;-71
2022/09/13 01:18:49;;;;;;;;;;;17.60;99.90;;;;;;5046269;28;19920;-70
2022/09/13 01:21:42;;;;;;;;;;;17.70;99.90;;;;;;5062153;28;19927;-71
2022/09/13 01:24:21;;;;;;;;;;;17.70;99.90;;;;;;5070449;28;19932;-71
2022/09/13 01:27:05;;;;;;;;;;;17.70;99.90;;;;;;5055135;28;19931;-71
2022/09/13 01:29:46;;;;;;;;;;;17.60;99.90;;;;;;5070150;28;19999;-71
2022/09/13 01:32:25;;;;;;;;;;;17.70;99.90;;;;;;5072143;28;19920;-71
2022/09/13 01:34:50;;;;;;;;;;;17.70;99.90;;;;;;5046633;28;19917;-71
2022/09/13 01:37:26;;;;;;;;;;;17.70;99.90;;;;;;5063712;28;19965;-70
2022/09/13 01:39:58;;;;;;;;;;;17.70;99.90;;;;;;5051181;28;19927;-71
2022/09/13 01:42:33;;;;;;;;;;;17.70;99.90;;;;;;5069748;28;20391;-70
2022/09/13 01:45:04;;;;;;;;;;;17.70;99.90;;;;;;5053662;28;19920;-71
2022/09/13 01:47:32;;;;;;;;;;;17.70;99.90;;;;;;5071194;28;19920;-71
2022/09/13 01:50:03;;;;;;;;;;;17.60;99.90;;;;;;5043764;28;19924;-71
2022/09/13 01:52:28;;;;;;;;;;;17.70;99.90;;;;;;5062878;28;19920;-70
2022/09/13 01:54:57;;;;;;;;;;;17.70;99.90;;;;;;5043154;28;19944;-71
2022/09/13 01:57:29;;;;;;;;;;;17.70;99.90;;;;;;5062985;28;19923;-71
2022/09/13 02:00:07;;;;;;;;;;;17.70;99.90;;;;;;5060899;28;19920;-71
2022/09/13 02:02:42;;;;;;;;;;;17.70;99.90;;;;;;5045684;28;20290;-71
2022/09/13 02:05:31;;;;;;;;;;;17.70;99.90;;;;;;5045385;28;19927;-70
2022/09/13 02:07:59;;;;;;;;;;;17.60;99.90;;;;;;5029840;28;20303;-70
2022/09/13 02:10:32;;;;;;;;;;;17.50;99.90;;;;;;5054761;28;20287;-70
2022/09/13 02:12:58;;;;;;;;;;;17.50;99.90;;;;;;5053097;28;19927;-71
2022/09/13 02:15:31;;;;;;;;;;;17.40;99.90;;;;;;5054519;28;20003;-70
2022/09/13 02:18:22;;;;;;;;;;;17.40;99.90;;;;;;5066923;28;19931;-70
2022/09/13 02:20:49;;;;;;;;;;;17.30;99.90;;;;;;5065558;28;19964;-71
2022/09/13 02:23:33;;;;;;;;;;;17.30;99.90;;;;;;5072042;28;20372;-71
2022/09/13 02:26:00;;;;;;;;;;;17.20;99.90;;;;;;5053139;28;20399;-71
2022/09/13 02:28:32;;;;;;;;;;;17.20;99.90;;;;;;5072614;28;19998;-70
2022/09/13 02:30:59;;;;;;;;;;;17.10;99.90;;;;;;5053821;28;19920;-71
2022/09/13 02:33:29;;;;;;;;;;;17.10;99.90;;;;;;5066188;28;19924;-71
2022/09/13 02:36:00;;;;;;;;;;;17.10;99.90;;;;;;5065505;28;19967;-71
2022/09/13 02:38:45;;;;;;;;;;;17.20;99.90;;;;;;5054115;28;19924;-71
2022/09/13 02:41:20;;;;;;;;;;;17.10;99.90;;;;;;5067337;28;19966;-71
2022/09/13 02:43:49;;;;;;;;;;;17.10;99.90;;;;;;5068886;28;19924;-70
2022/09/13 02:46:18;;;;;;;;;;;17.10;99.90;;;;;;5054287;28;19921;-71
2022/09/13 02:48:50;;;;;;;;;;;17.10;99.90;;;;;;5048671;28;19931;-71
2022/09/13 02:51:34;;;;;;;;;;;17.10;99.90;;;;;;5045487;28;19927;-71
2022/09/13 02:54:24;;;;;;;;;;;17.10;99.90;;;;;;5043725;28;19921;-71
2022/09/13 02:56:56;;;;;;;;;;;17.10;99.90;;;;;;5069649;28;19920;-71
2022/09/13 02:59:23;;;;;;;;;;;17.10;99.90;;;;;;5053804;28;19955;-71
2022/09/13 03:02:12;;;;;;;;;;;17.20;99.90;;;;;;5053243;28;19957;-71
2022/09/13 03:04:38;;;;;;;;;;;17.10;99.90;;;;;;5056754;28;19967;-71
2022/09/13 03:07:05;;;;;;;;;;;17.10;99.90;;;;;;5071633;28;19990;-71
2022/09/13 03:09:31;;;;;;;;;;;17.20;99.90;;;;;;5073641;28;19927;-71
2022/09/13 03:12:05;;;;;;;;;;;17.10;99.90;;;;;;5075711;28;19939;-71
2022/09/13 03:14:36;;;;;;;;;;;17.10;99.90;;;;;;5057570;28;20372;-71
2022/09/13 03:17:19;;;;;;;;;;;17.20;99.90;;;;;;5074616;28;19920;-71
2022/09/13 03:20:20;;;;;;;;;;;17.20;99.90;;;;;;5047884;28;19920;-71
2022/09/13 03:22:57;;;;;;;;;;;17.20;99.90;;;;;;5048821;28;20015;-71
2022/09/13 03:25:37;;;;;;;;;;;17.20;99.90;;;;;;5064398;28;19921;-71
2022/09/13 03:28:17;;;;;;;;;;;17.20;99.90;;;;;;5071730;28;19920;-71
2022/09/13 03:30:47;;;;;;;;;;;17.20;99.90;;;;;;5054583;28;20328;-71
2022/09/13 03:33:23;;;;;;;;;;;17.20;99.90;;;;;;5069830;28;20023;-71
2022/09/13 03:36:06;;;;;;;;;;;17.20;99.90;;;;;;5046310;28;19920;-71
2022/09/13 03:38:35;;;;;;;;;;;17.20;99.90;;;;;;5071995;28;19999;-71
2022/09/13 03:41:04;;;;;;;;;;;17.20;99.90;;;;;;5053589;28;20003;-71
2022/09/13 03:43:34;;;;;;;;;;;17.20;99.90;;;;;;5052619;28;19920;-71
2022/09/13 03:46:03;;;;;;;;;;;17.20;99.90;;;;;;5074145;28;19921;-71
2022/09/13 03:48:30;;;;;;;;;;;17.20;99.90;;;;;;5054863;28;19927;-71
2022/09/13 03:50:56;;;;;;;;;;;17.30;99.90;;;;;;5051569;28;19927;-72
2022/09/13 03:53:26;;;;;;;;;;;17.20;99.90;;;;;;5057304;28;19920;-71
2022/09/13 03:55:52;;;;;;;;;;;17.30;99.90;;;;;;5055481;28;19921;-71
2022/09/13 03:58:18;;;;;;;;;;;17.30;99.90;;;;;;5056221;28;20390;-71
2022/09/13 04:00:44;;;;;;;;;;;17.30;99.90;;;;;;5057389;28;19943;-71
2022/09/13 04:03:12;;;;;;;;;;;17.20;99.90;;;;;;5052388;28;20381;-71
2022/09/13 04:05:37;;;;;;;;;;;17.20;99.90;;;;;;5046718;28;20411;-71
2022/09/13 04:08:07;;;;;;;;;;;17.20;99.90;;;;;;5063088;28;19971;-71
2022/09/13 04:10:33;;;;;;;;;;;17.20;99.90;;;;;;5065585;28;20324;-71
2022/09/13 04:12:59;;;;;;;;;;;17.10;99.90;;;;;;5044109;28;20006;-71
2022/09/13 04:15:25;;;;;;;;;;;17.10;99.90;;;;;;5048675;28;19947;-71
2022/09/13 04:17:50;;;;;;;;;;;17.10;99.90;;;;;;5047342;28;19921;-71
2022/09/13 04:20:16;;;;;;;;;;;17.10;99.90;;;;;;5065320;28;20347;-71
2022/09/13 04:22:42;;;;;;;;;;;17.00;99.90;;;;;;5046249;28;19920;-70
2022/09/13 04:25:08;;;;;;;;;;;17.00;99.90;;;;;;5045600;28;20003;-71
2022/09/13 04:27:34;;;;;;;;;;;17.00;99.90;;;;;;5065479;28;20008;-70
2022/09/13 04:30:01;;;;;;;;;;;17.00;99.90;;;;;;5063202;28;19964;-70
2022/09/13 04:32:29;;;;;;;;;;;17.00;99.90;;;;;;5046736;28;19924;-70
2022/09/13 04:34:55;;;;;;;;;;;17.00;99.90;;;;;;5051807;28;19944;-70
2022/09/13 04:37:20;;;;;;;;;;;17.00;99.90;;;;;;5056511;28;20330;-70
2022/09/13 04:39:46;;;;;;;;;;;17.00;99.90;;;;;;5073809;28;19971;-70
2022/09/13 04:42:11;;;;;;;;;;;16.90;99.90;;;;;;5055769;28;19916;-70
2022/09/13 04:44:37;;;;;;;;;;;16.90;99.90;;;;;;5047479;28;19928;-70
2022/09/13 04:47:03;;;;;;;;;;;16.90;99.90;;;;;;5045736;28;19920;-70
2022/09/13 04:49:29;;;;;;;;;;;17.00;99.90;;;;;;5067344;28;19927;-71
2022/09/13 04:51:54;;;;;;;;;;;17.00;99.90;;;;;;5073749;28;20291;-70
2022/09/13 04:54:20;;;;;;;;;;;17.00;99.90;;;;;;5055346;28;19928;-70
2022/09/13 04:56:46;;;;;;;;;;;17.00;99.90;;;;;;5069983;28;19970;-70
2022/09/13 04:59:11;;;;;;;;;;;17.00;99.90;;;;;;5068564;28;19932;-70
2022/09/13 05:01:37;;;;;;;;;;;17.00;99.90;;;;;;5072284;28;20368;-74
2022/09/13 05:04:04;;;;;;;;;;;17.00;99.90;;;;;;5072687;28;20021;-75
2022/09/13 05:06:30;;;;;;;;;;;17.00;99.90;;;;;;5072432;28;19920;-74
2022/09/13 05:08:55;;;;;;;;;;;17.00;99.90;;;;;;5063518;28;19928;-82
2022/09/13 05:11:22;;;;;;;;;;;17.00;99.90;;;;;;5073672;28;20272;-75
2022/09/13 05:13:51;;;;;;;;;;;17.00;99.90;;;;;;5073081;28;20335;-75
2022/09/13 05:16:17;;;;;;;;;;;17.00;99.90;;;;;;5054664;28;19942;-70
2022/09/13 05:18:42;;;;;;;;;;;17.00;99.90;;;;;;5049848;28;19920;-70
2022/09/13 05:21:08;;;;;;;;;;;17.00;99.90;;;;;;5045979;28;19928;-70
2022/09/13 05:23:34;;;;;;;;;;;17.00;99.90;;;;;;5043625;28;19920;-70
2022/09/13 05:26:01;;;;;;;;;;;17.00;99.90;;;;;;5044790;28;19967;-72
2022/09/13 05:28:27;;;;;;;;;;;17.00;99.90;;;;;;5044648;28;19925;-73
2022/09/13 05:30:57;;;;;;;;;;;17.00;99.90;;;;;;5044032;28;19973;-70
2022/09/13 05:33:23;;;;;;;;;;;16.90;99.90;;;;;;5043207;28;20341;-73
2022/09/13 05:35:49;;;;;;;;;;;16.90;99.90;;;;;;5067674;28;20256;-72
2022/09/13 05:38:14;;;;;;;;;;;16.90;99.90;;;;;;5053514;28;20386;-72
2022/09/13 05:40:40;;;;;;;;;;;16.80;99.90;;;;;;5047131;28;19920;-72
2022/09/13 05:43:05;;;;;;;;;;;16.80;99.90;;;;;;5065951;28;19932;-72
2022/09/13 05:45:31;;;;;;;;;;;16.70;99.90;;;;;;5042769;28;20539;-73
2022/09/13 05:47:56;;;;;;;;;;;16.80;99.90;;;;;;5051555;28;19977;-73
2022/09/13 05:50:22;;;;;;;;;;;16.70;99.90;;;;;;5040301;28;19971;-74
2022/09/13 05:52:52;;;;;;;;;;;16.70;99.90;;;;;;5044250;28;19927;-75
2022/09/13 05:55:20;;;;;;;;;;;16.70;99.90;;;;;;5065372;28;19921;-73
2022/09/13 05:57:47;;;;;;;;;;;16.60;99.90;;;;;;5044693;28;19924;-78
2022/09/13 06:00:12;;;;;;;;;;;16.70;99.90;;;;;;5046258;28;19924;-75
2022/09/13 06:02:38;;;;;;;;;;;16.50;99.90;;;;;;5049344;28;19967;-73
2022/09/13 06:05:04;;;;;;;;;;;16.50;99.90;;;;;;5067865;28;20015;-73
2022/09/13 06:07:29;;;;;;;;;;;16.50;99.90;;;;;;5048493;28;19959;-72
2022/09/13 06:09:55;;;;;;;;;;;16.50;99.90;;;;;;5046082;28;19953;-74
2022/09/13 06:12:20;;;;;;;;;;;16.40;99.90;;;;;;5045664;28;19920;-72
2022/09/13 06:14:46;;;;;;;;;;;16.50;99.90;;;;;;5065883;28;20282;-72
2022/09/13 06:17:11;;;;;;;;;;;16.50;99.90;;;;;;5041689;28;19924;-72
2022/09/13 06:19:38;;;;;;;;;;;16.50;99.90;;;;;;5067866;28;19921;-72
2022/09/13 06:22:04;;;;;;;;;;;16.50;99.90;;;;;;5049885;28;20368;-72
2022/09/13 06:24:29;;;;;;;;;;;16.60;99.90;;;;;;5050291;28;19928;-74
2022/09/13 06:26:55;;;;;;;;;;;16.50;99.90;;;;;;5070085;28;19935;-72
2022/09/13 06:29:20;;;;;;;;;;;16.60;99.90;;;;;;5067468;28;20025;-75
2022/09/13 06:31:49;;;;;;;;;;;16.60;99.90;;;;;;5045694;28;20311;-74
2022/09/13 06:34:16;;;;;;;;;;;16.60;99.90;;;;;;5043424;28;19975;-76
2022/09/13 06:36:42;;;;;;;;;;;16.60;99.90;;;;;;5042966;28;19921;-78
2022/09/13 06:39:07;;;;;;;;;;;16.60;99.90;;;;;;5043973;28;19970;-75
2022/09/13 06:41:33;;;;;;;;;;;16.60;99.90;;;;;;5049923;28;20010;-75
2022/09/13 06:43:59;;;;;;;;;;;16.60;99.90;;;;;;5046158;28;20392;-73
2022/09/13 06:46:26;;;;;;;;;;;16.70;99.90;;;;;;5063181;28;20411;-72
2022/09/13 06:48:52;;;;;;;;;;;16.70;99.90;;;;;;5043009;28;19935;-74
2022/09/13 06:51:18;;;;;;;;;;;16.80;99.90;;;;;;5044405;28;19920;-74
2022/09/13 06:53:44;;;;;;;;;;;16.80;99.90;;;;;;5048382;28;19921;-73
2022/09/13 06:56:12;;;;;;;;;;;16.90;99.90;;;;;;5043273;28;19990;-73
2022/09/13 06:58:38;;;;;;;;;;;16.90;99.90;;;;;;5060326;28;19927;-73
2022/09/13 07:01:09;;;;;;;;;;;16.90;99.90;;;;;;5047025;28;20004;-73
2022/09/13 07:03:36;;;;;;;;;;;17.00;99.90;;;;;;5063840;28;19927;-73
2022/09/13 07:06:05;;;;;;;;;;;17.10;99.90;;;;;;5048298;28;19935;-73
2022/09/13 07:08:31;;;;;;;;;;;17.10;99.90;;;;;;5046532;28;19960;-73
2022/09/13 07:10:56;;;;;;;;;;;17.20;99.90;;;;;;5059682;28;19978;-74
2022/09/13 07:13:22;;;;;;;;;;;17.30;99.90;;;;;;5050148;28;19931;-73
2022/09/13 07:15:47;;;;;;;;;;;17.30;99.90;;;;;;5041976;28;20390;-73
2022/09/13 07:18:13;;;;;;;;;;;17.40;99.90;;;;;;5045512;28;19971;-74
2022/09/13 07:20:38;;;;;;;;;;;17.50;99.90;;;;;;5061589;28;19922;-74
2022/09/13 07:23:04;;;;;;;;;;;17.60;99.90;;;;;;5047158;28;20276;-74
2022/09/13 07:25:29;;;;;;;;;;;17.90;99.90;;;;;;5050591;28;19927;-74
2022/09/13 07:27:55;;;;;;;;;;;18.80;99.90;;;;;;5069913;28;19967;-75
2022/09/13 07:30:20;;;;;;;;;;;19.80;99.90;;;;;;5049945;28;20280;-75
2022/09/13 07:32:46;;;;;;;;;;;20.90;99.90;;;;;;5052667;28;19931;-74
2022/09/13 07:35:12;;;;;;;;;;;21.90;99.90;;;;;;5043857;28;20342;-75
2022/09/13 07:37:37;;;;;;;;;;;22.40;99.90;;;;;;5050634;28;19947;-75
2022/09/13 07:40:03;;;;;;;;;;;22.80;99.90;;;;;;5071372;28;19921;-75
2022/09/13 07:42:28;;;;;;;;;;;23.20;99.90;;;;;;5069728;28;20284;-75
2022/09/13 07:44:54;;;;;;;;;;;23.50;99.90;;;;;;5052585;28;19961;-75
2022/09/13 07:47:19;;;;;;;;;;;24.00;99.90;;;;;;5043744;28;19928;-80
2022/09/13 07:49:45;;;;;;;;;;;24.20;99.90;;;;;;5061983;28;19920;-71
2022/09/13 07:52:11;;;;;;;;;;;24.70;98.10;;;;;;5060229;28;20296;-71
2022/09/13 07:54:37;;;;;;;;;;;24.90;96.80;;;;;;5062248;28;19931;-71
2022/09/13 07:57:02;;;;;;;;;;;25.20;96.40;;;;;;5046210;28;19920;-70
2022/09/13 07:59:28;;;;;;;;;;;25.50;96.10;;;;;;5046812;28;19989;-71
2022/09/13 08:01:53;;;;;;;;;;;25.90;95.40;;;;;;5068470;28;19962;-71
2022/09/13 08:04:22;;;;;;;;;;;26.50;93.70;;;;;;5062199;28;19921;-71
2022/09/13 08:06:48;;;;;;;;;;;27.00;93.60;;;;;;5066474;28;19924;-71
2022/09/13 08:09:14;;;;;;;;;;;27.60;92.90;;;;;;5071040;28;19920;-71
2022/09/13 08:11:41;;;;;;;;;;;28.10;91.00;;;;;;5054116;28;19927;-71
2022/09/13 08:14:08;;;;;;;;;;;28.40;91.70;;;;;;5045687;28;19970;-71
2022/09/13 08:16:34;;;;;;;;;;;28.90;90.40;;;;;;5064911;28;20376;-71
2022/09/13 08:19:00;;;;;;;;;;;29.30;90.30;;;;;;5046253;28;19962;-71
2022/09/13 08:21:30;;;;;;;;;;;29.20;87.00;;;;;;5045947;28;19925;-71
2022/09/13 08:23:58;;;;;;;;;;;29.40;88.50;;;;;;5064631;28;19920;-71
2022/09/13 08:26:24;;;;;;;;;;;29.10;85.60;;;;;;5063150;28;19960;-71
2022/09/13 08:28:54;;;;;;;;;;;29.10;86.60;;;;;;5055683;28;19971;-71
2022/09/13 08:31:21;;;;;;;;;;;29.20;89.10;;;;;;5047144;28;19921;-71
2022/09/13 08:33:49;;;;;;;;;;;28.80;86.20;;;;;;5065216;28;20336;-71
2022/09/13 08:36:15;;;;;;;;;;;29.40;85.80;;;;;;5044669;28;20011;-71
2022/09/13 08:38:48;;;;;;;;;;;29.70;85.60;;;;;;5047236;28;19928;-71
2022/09/13 08:41:22;;;;;;;;;;;29.70;84.90;;;;;;5046858;28;19920;-71
2022/09/13 08:43:54;;;;;;;;;;;29.90;83.50;;;;;;5069365;28;19920;-71
2022/09/13 08:46:24;;;;;;;;;;;30.30;84.40;;;;;;5055157;28;20003;-71
2022/09/13 08:48:51;;;;;;;;;;;30.80;85.60;;;;;;5055901;28;19920;-71
2022/09/13 08:51:26;;;;;;;;;;;31.00;83.20;;;;;;5074221;28;19924;-71
2022/09/13 08:53:52;;;;;;;;;;;31.20;83.20;;;;;;5054979;28;19927;-71
2022/09/13 08:56:36;;;;;;;;;;;31.20;82.60;;;;;;5073376;28;21297;-71
2022/09/13 08:59:13;;;;;;;;;;;30.10;80.60;;;;;;5062640;28;19920;-80
2022/09/13 09:01:46;;;;;;;;;;;29.30;84.70;;;;;;5051998;28;19989;-79
2022/09/13 09:04:27;;;;;;;;;;;28.40;84.20;;;;;;5052606;28;19920;-78
2022/09/13 09:07:13;;;;;;;;;;;27.20;88.00;;;;;;5054096;28;19921;-73
2022/09/13 09:09:42;;;;;;;;;;;26.40;89.80;;;;;;5052698;28;19927;-72
2022/09/13 09:12:18;;;;;;;;;;;25.70;91.60;;;;;;5074609;28;19920;-75
2022/09/13 09:14:45;;;;;;;;;;;26.00;91.40;;;;;;5049956;28;19955;-74
2022/09/13 09:17:21;;;;;;;;;;;27.00;91.20;;;;;;5075626;28;19928;-75
2022/09/13 09:20:08;;;;;;;;;;;27.90;89.90;;;;;;5055375;28;19947;-76
2022/09/13 09:22:34;;;;;;;;;;;29.20;88.00;;;;;;5032851;28;19927;-72
2022/09/13 09:25:00;;;;;;;;;;;29.80;82.40;;;;;;5035953;28;19928;-77
2022/09/13 09:27:29;;;;;;;;;;;29.90;84.40;;;;;;5031154;28;19920;-73
2022/09/13 09:29:57;;;;;;;;;;;29.90;81.10;;;;;;5045094;28;20015;-71
2022/09/13 09:32:41;;;;;;;;;;;30.30;81.70;;;;;;5024525;28;19967;-72
2022/09/13 09:35:10;;;;;;;;;;;30.90;84.30;;;;;;5031395;28;19924;-73
2022/09/13 09:37:36;;;;;;;;;;;31.50;79.60;;;;;;5052514;28;19967;-72
2022/09/13 09:40:06;;;;;;;;;;;31.60;82.00;;;;;;5035427;28;19982;-72
2022/09/13 09:42:38;;;;;;;;;;;31.60;79.80;;;;;;5025387;28;19943;-72
2022/09/13 09:45:05;;;;;;;;;;;30.30;80.10;;;;;;5047507;28;19928;-73
2022/09/13 09:47:38;;;;;;;;;;;29.20;82.20;;;;;;5045121;28;19924;-72
2022/09/13 09:50:10;;;;;;;;;;;29.50;81.60;;;;;;5031517;28;19920;-72
2022/09/13 09:52:38;;;;;;;;;;;30.50;80.30;;;;;;5052699;28;19927;-72
2022/09/13 09:55:23;;;;;;;;;;;30.90;81.20;;;;;;5034610;28;20344;-77
2022/09/13 09:57:59;;;;;;;;;;;30.40;81.30;;;;;;5046611;28;20265;-70
2022/09/13 10:00:28;;;;;;;;;;;29.30;83.30;;;;;;5034775;28;20392;-70
2022/09/13 10:02:56;;;;;;;;;;;27.80;83.00;;;;;;5033793;28;19921;-71
2022/09/13 10:05:25;;;;;;;;;;;27.00;87.40;;;;;;5052832;28;20011;-70
2022/09/13 10:07:53;;;;;;;;;;;26.30;89.60;;;;;;5034635;28;19920;-73
2022/09/13 10:10:20;;;;;;;;;;;25.80;88.90;;;;;;5052035;28;20030;-71
2022/09/13 10:12:49;;;;;;;;;;;25.70;89.30;;;;;;5031411;28;20332;-71
2022/09/13 10:15:16;;;;;;;;;;;26.30;90.00;;;;;;5043510;28;19921;-71
2022/09/13 10:17:42;;;;;;;;;;;27.50;87.40;;;;;;5023625;28;20330;-74
2022/09/13 10:20:14;;;;;;;;;;;27.50;85.70;;;;;;5029400;28;19921;-69
2022/09/13 10:22:41;;;;;;;;;;;28.10;86.30;;;;;;5062191;28;19939;-73
2022/09/13 10:25:28;;;;;;;;;;;29.10;85.00;;;;;;5043304;28;19932;-75
2022/09/13 10:27:55;;;;;;;;;;;29.20;83.10;;;;;;5044873;28;20054;-71
2022/09/13 10:30:33;;;;;;;;;;;28.00;83.70;;;;;;5044069;28;20030;-70
2022/09/13 10:32:59;;;;;;;;;;;27.40;81.50;;;;;;5050346;28;19942;-71
2022/09/13 10:35:25;;;;;;;;;;;27.50;82.10;;;;;;5054305;28;19921;-75
2022/09/13 10:37:51;;;;;;;;;;;27.60;85.10;;;;;;5065898;28;19916;-73
2022/09/13 10:40:23;;;;;;;;;;;27.30;82.70;;;;;;5045536;28;19931;-74
2022/09/13 10:42:56;;;;;;;;;;;27.00;85.00;;;;;;5066921;28;20331;-76
2022/09/13 10:45:22;;;;;;;;;;;27.10;86.50;;;;;;5072162;28;19974;-79
2022/09/13 10:47:57;;;;;;;;;;;26.70;84.60;;;;;;5054610;28;19928;-73
2022/09/13 10:50:27;;;;;;;;;;;26.20;85.80;;;;;;5051838;28;19927;-73
2022/09/13 10:52:53;;;;;;;;;;;25.60;88.30;;;;;;5052984;28;19927;-72
2022/09/13 10:55:22;;;;;;;;;;;25.20;90.20;;;;;;5044146;28;20014;-72
2022/09/13 10:57:49;;;;;;;;;;;24.90;90.20;;;;;;5069734;28;19924;-72
2022/09/13 11:00:23;;;;;;;;;;;25.10;90.70;;;;;;5050584;28;20051;-75
2022/09/13 11:03:08;;;;;;;;;;;26.10;90.00;;;;;;5050568;28;20387;-70
2022/09/13 11:05:54;;;;;;;;;;;27.30;87.50;;;;;;5071641;28;19921;-72
2022/09/13 11:08:28;;;;;;;;;;;28.40;86.80;;;;;;5049111;28;19927;-80
2022/09/13 11:10:54;;;;;;;;;;;28.00;84.90;;;;;;5042831;28;20284;-75
2022/09/13 11:13:41;;;;;;;;;;;27.40;85.40;;;;;;5044261;28;19927;-71
2022/09/13 11:16:15;;;;;;;;;;;27.30;88.50;;;;;;5044376;28;20037;-75
2022/09/13 11:18:59;;;;;;;;;;;26.90;87.00;;;;;;5060426;28;19932;-74
2022/09/13 11:21:33;;;;;;;;;;;27.10;87.50;;;;;;5044562;28;19992;-73
2022/09/13 11:24:04;;;;;;;;;;;27.00;86.60;;;;;;5060922;28;19920;-72
2022/09/13 11:26:53;;;;;;;;;;;27.30;88.10;;;;;;5053434;28;20403;-73
2022/09/13 11:29:28;;;;;;;;;;;26.90;85.20;;;;;;5067593;28;20368;-74
2022/09/13 11:32:04;;;;;;;;;;;26.30;84.60;;;;;;5055305;28;19927;-72
2022/09/13 11:34:44;;;;;;;;;;;25.70;87.30;;;;;;5056737;28;19920;-72
2022/09/13 11:37:12;;;;;;;;;;;26.00;87.00;;;;;;5052928;28;20838;-76
2022/09/13 11:39:42;;;;;;;;;;;26.80;87.00;;;;;;5045980;28;19925;-70
2022/09/13 11:42:07;;;;;;;;;;;27.50;86.50;;;;;;5046100;28;20435;-72
2022/09/13 11:44:51;;;;;;;;;;;27.50;82.70;;;;;;5068426;28;20016;-73
2022/09/13 11:47:28;;;;;;;;;;;26.80;85.70;;;;;;5067148;28;20007;-77
2022/09/13 11:49:57;;;;;;;;;;;26.80;88.80;;;;;;5048081;28;19920;-75
2022/09/13 11:52:29;;;;;;;;;;;27.50;86.90;;;;;;5051221;28;19920;-72
2022/09/13 11:55:04;;;;;;;;;;;27.30;84.50;;;;;;5050338;28;19929;-73
2022/09/13 11:57:32;;;;;;;;;;;27.00;85.60;;;;;;5052622;28;19979;-73
2022/09/13 12:00:00;;;;;;;;;;;27.00;82.50;;;;;;5083225;28;19959;-70
2022/09/13 12:02:45;;;;;;;;;;;26.60;87.40;;;;;;5076358;28;19920;-74
2022/09/13 12:05:15;;;;;;;;;;;26.60;85.20;;;;;;5049009;28;19924;-75
2022/09/13 12:07:45;;;;;;;;;;;27.20;85.50;;;;;;5041544;28;19920;-76
2022/09/13 12:10:16;;;;;;;;;;;27.80;85.70;;;;;;5045058;28;19939;-77
2022/09/13 12:12:49;;;;;;;;;;;27.30;84.80;;;;;;5045706;28;19929;-71
2022/09/13 12:15:17;;;;;;;;;;;27.00;86.10;;;;;;5044546;28;19928;-70
2022/09/13 12:17:48;;;;;;;;;;;27.50;84.30;;;;;;5064698;28;19921;-73
2022/09/13 12:20:19;;;;;;;;;;;27.90;81.80;;;;;;5064065;28;19995;-73
2022/09/13 12:22:46;;;;;;;;;;;28.10;84.30;;;;;;5042707;28;19974;-73
2022/09/13 12:25:21;;;;;;;;;;;27.80;83.80;;;;;;5064779;28;20295;-71
2022/09/13 12:27:58;;;;;;;;;;;27.70;84.10;;;;;;5047987;28;19928;-72
2022/09/13 12:30:27;;;;;;;;;;;27.00;84.60;;;;;;5048268;28;19964;-73
2022/09/13 12:32:53;;;;;;;;;;;26.70;86.00;;;;;;5044024;28;19974;-74
2022/09/13 12:35:33;;;;;;;;;;;26.00;86.00;;;;;;5063860;28;19924;-73
2022/09/13 12:38:11;;;;;;;;;;;25.70;87.20;;;;;;5039948;28;20379;-75
2022/09/13 12:40:55;;;;;;;;;;;25.20;86.30;;;;;;5045905;28;19920;-75
2022/09/13 12:43:39;;;;;;;;;;;25.10;86.70;;;;;;5072185;28;19959;-76
2022/09/13 12:46:31;;;;;;;;;;;25.10;86.40;;;;;;5037666;28;21089;-74
2022/09/13 12:49:20;;;;;;;;;;;25.30;87.20;;;;;;5046456;28;20396;-75
2022/09/13 12:51:49;;;;;;;;;;;25.10;87.00;;;;;;5063325;28;19924;-74
2022/09/13 12:54:27;;;;;;;;;;;24.60;87.70;;;;;;5064616;28;20314;-76
2022/09/13 12:56:57;;;;;;;;;;;24.50;90.00;;;;;;5067356;28;19928;-77
2022/09/13 12:59:34;;;;;;;;;;;24.80;88.90;;;;;;5062878;28;20031;-77
2022/09/13 13:02:02;;;;;;;;;;;25.00;88.70;;;;;;5067684;28;20362;-75
2022/09/13 13:04:29;;;;;;;;;;;24.80;88.10;;;;;;5067850;28;19924;-71
2022/09/13 13:06:57;;;;;;;;;;;24.90;90.40;;;;;;5041109;28;19931;-74
2022/09/13 13:09:22;;;;;;;;;;;24.90;87.10;;;;;;5070373;28;19920;-70
2022/09/13 13:11:50;;;;;;;;;;;24.80;87.60;;;;;;5062878;28;19928;-69
2022/09/13 13:14:35;;;;;;;;;;;24.70;87.60;;;;;;5045749;28;20011;-75
2022/09/13 13:17:21;;;;;;;;;;;24.40;86.80;;;;;;5050985;28;20356;-72
2022/09/13 13:19:46;;;;;;;;;;;24.30;88.50;;;;;;5012899;28;19924;-73
2022/09/13 13:22:30;;;;;;;;;;;24.40;88.70;;;;;;5026778;28;19928;-72
2022/09/13 13:24:59;;;;;;;;;;;24.30;88.80;;;;;;5044948;28;19931;-75
2022/09/13 13:27:36;;;;;;;;;;;24.10;87.10;;;;;;5021808;28;19921;-73
2022/09/13 13:30:30;;;;;;;;;;;24.10;88.30;;;;;;5023500;28;19928;-75
2022/09/13 13:33:25;;;;;;;;;;;23.90;87.10;;;;;;5048387;28;19925;-72
2022/09/13 13:35:54;;;;;;;;;;;24.20;89.00;;;;;;5012410;28;20301;-72
2022/09/13 13:38:40;;;;;;;;;;;24.20;89.40;;;;;;5041302;28;20296;-73
2022/09/13 13:41:08;;;;;;;;;;;24.30;88.30;;;;;;5026212;28;20706;-72
2022/09/13 13:43:34;;;;;;;;;;;24.40;87.00;;;;;;5048214;28;19921;-72
2022/09/13 13:46:12;;;;;;;;;;;24.30;88.10;;;;;;5022332;28;19921;-75
2022/09/13 13:48:38;;;;;;;;;;;24.30;89.80;;;;;;5019774;28;19924;-75
2022/09/13 13:51:13;;;;;;;;;;;24.20;88.80;;;;;;5043140;28;20351;-72
2022/09/13 13:53:41;;;;;;;;;;;24.20;89.10;;;;;;5024847;28;19931;-72
2022/09/13 13:56:14;;;;;;;;;;;24.40;87.40;;;;;;5025486;28;19921;-73
2022/09/13 13:58:45;;;;;;;;;;;24.30;87.30;;;;;;5022661;28;20283;-72
2022/09/13 14:01:17;;;;;;;;;;;24.20;88.00;;;;;;5046695;28;19928;-74
2022/09/13 14:03:55;;;;;;;;;;;24.20;87.70;;;;;;5048213;28;19967;-78
2022/09/13 14:06:29;;;;;;;;;;;24.10;87.70;;;;;;5031698;28;20019;-77
2022/09/13 14:09:07;;;;;;;;;;;24.00;88.00;;;;;;5034321;28;19952;-77
2022/09/13 14:11:40;;;;;;;;;;;23.80;87.90;;;;;;5035487;28;19970;-78
2022/09/13 14:14:26;;;;;;;;;;;23.60;89.10;;;;;;5052429;28;19921;-78
2022/09/13 14:16:55;;;;;;;;;;;23.80;89.20;;;;;;5030860;28;19921;-79
2022/09/13 14:19:23;;;;;;;;;;;23.80;89.10;;;;;;5034973;28;20383;-79
2022/09/13 14:22:07;;;;;;;;;;;23.80;89.90;;;;;;5049610;28;19927;-78
2022/09/13 14:24:41;;;;;;;;;;;23.90;89.70;;;;;;5066455;28;19921;-76
2022/09/13 14:27:12;;;;;;;;;;;23.80;90.20;;;;;;5060995;28;19921;-76
2022/09/13 14:29:38;;;;;;;;;;;23.70;90.10;;;;;;5055876;28;19978;-77
2022/09/13 14:32:05;;;;;;;;;;;23.60;89.30;;;;;;5042845;28;19927;-76
2022/09/13 14:34:33;;;;;;;;;;;23.30;90.30;;;;;;5045164;28;19952;-77